Chartrier Ferrière (19) - D

Date : 22/08/2015

Place Nom Licence Catégorie Club Temps CN à J-60 Points Différence Nouveau CN
1 DODIN Céline 3292 D21 8809LO 0:54:53 7309 6757 -552 7309
2 KOTECKA Michaela 14628 D35 5906NO 1:02:25 5637 5942 +305 5945
3 COUPAT Laure 147 D35 2606RA 1:02:48 6409 5905 -504 6415
4 TINCHANT Estelle 745 D35 2517FC 1:07:10 5125 5521 +396 5429
5 RAUTURIER Camille 4183 D21 7807IF 1:07:36 5709 5486 -223 5736
6 VASSY Margaux 8514 D21 4203RA 1:07:42 5531 5478 -53 5853
7 CHASLES Aurélie 21140 D35 4504CE 1:08:07 5151 5444 +293 5234
8 PAPILLON Cécile 2759 D21 2109BO 1:10:00 4526 5298 +772 4971
9 IMBERT Adeline 6522 D35 2606RA 1:10:08 6000 5288 -712 5932
10 VANNIER Valerie 2091 D35 7703IF 1:10:18 5968 5275 -693 5930
11 COMPAGNON Marie 24975 D21 1705PC 1:10:50 4603 5236 +633 4955
12 BOUCHAN Estelle 27795 D21 2517FC 1:10:53 5213 5232 +19 5319
13 IZARD Aurelie 8067 D21 8105MP 1:11:02 5014 5221 +207 5224
14 MONTERRAT Amandine 8359 D21 4203RA 1:11:40 5241 5175 -66 5396
15 VUILLEMARD Marie 14238 D35 8812LO 1:11:42 5693 5172 -521 5640
16 RUIZ Celine 14776 D35 8105MP 1:11:49 5063 5164 +101 5114
17 MERCIER Agnès 23079 D21 5907NO 1:12:22 5213 5125 -88 5313
18 PAULY Marianne 21040 D35 1705PC 1:12:31 4808 5114 +306 4906
19 DESRUMAUX Marie 14227 D35 5906NO 1:12:47 5488 5095 -393 5629
20 GUINOT Marion 15018 D20 2108BO 1:13:32 4885 5043 +158 5040
21 BONORA Marine 11542 D20 6906RA 1:18:27 4983 4727 -256 5225
22 BARRIER Marianne 801 D21 4203RA 1:18:55 4491 4699 +208 4606
23 VILLAR Aurélie 18133 D21 6008PI 1:19:31 5025 4664 -361 5087
24 VADUREL Pauline 19241 D21 5907NO 1:20:38 0 4599 4832
25 BASSET Fiona 23384 D20 6911RA 1:20:51 4359 4587 +228 4845
26 SANCHEZ BRUNS Marta 28001 D35 4705AQ 1:23:19 4790 4451 -339 4790
27 GRESSET-BOURGEOIS Mathilde 26666 D21 3105MP 1:24:17 4927 4400 -527 4941
28 VAN TORHOUDT Adèle 26885 D20 1403NM 1:25:29 4123 4338 +215 4494
29 DECARPIGNY Gwladys 6995 D35 5907NO 1:25:45 4227 4325 +98 4615
30 GROSPERRIN Marlène 29599 D35 3914FC 1:26:50 3752 4271 +519 4132
31 LE CAM Miti 27711 D20 3502BR 1:27:51 3659 4221 +562 4620
32 DONET Elodie 26938 D21 2109BO 1:29:42 4450 4134 -316 4613
33 RICARD BORCHORST Clarissa 14676 D21 9502IF 1:30:22 5080 4104 -976 5097
34 BULLA Virginie 29471 D35 8702LI 1:30:33 4555 4096 -459 4581
35 KIRILOV Aurélie 20629 D21 5906NO 1:31:47 4796 4041 -755 4796
36 NIGGLI Daria 21017 D35 3913FC 1:31:53 4480 4036 -444 4598
37 LOUVET Eloise 912 D21 7707IF 1:33:07 3984 3983 -1 3963
38 SEGUINOT Emilie 6724 D21 0801CA 1:33:34 4378 3964 -414 4693
39 BONDIVENNE Perrine 8914 D20 6408AQ 1:34:33 3469 3922 +453 4346
40 HAYER Cécilia 26528 D21 6709AL 1:34:55 3843 3907 +64 3896
41 KROL Helene 13799 D35 1307PZ 1:35:11 4353 3896 -457 4457
42 ESPI Pauline 25314 D21 5116CA 1:36:26 4874 3846 -1028 4853
43 PARIS Aurelia 31423 D21 1905LI 1:37:31 3803 3748
44 VAN DER BOL MURAT Diane 30453 D21 8702LI 1:38:03 4166 3782 -384 4263
45 DUCHASSIN Audrey 12880 D35 8105MP 1:42:56 4227 3603 -624 4177
46 HUGUET Elisabeth 30813 D35 2605RA 1:46:09 2749 3494 +745 3493
47 MAIGRE Rose Marie 27367 D35 4709AQ 1:47:14 3493 3458 -35 3428
48 COLLETTE Céline 24924 D35 4601MP 1:51:25 3549 3329 -220 3596
49 BERNARD Annabelle 31428 D35 7701IF 1:51:33 3325 3126
50 CRETE Camille 18828 D20 6008PI 1:54:38 3235 3186
51 RIVOLLIER Isaline 22451 D20 4201RA 1:56:34 4078 3181 -897 4078
52 GOURLAIN Mathilde 18299 D20 6205NO 1:56:54 3213 3172 -41 3463
53 DANEL Emilie 30596 D21 3308AQ 1:57:45 3352 3150 -202 3421
54 MEMBREY Aurore 19740 D21 2508FC 1:59:26 4168 3105 -1063 4234
55 RAVENEL Manon 10903 D21 6804AL 2:02:01 4059 3039 -1020 4188
56 VERCASSON Rachel 14527 D21 2604RA 2:05:36 4200 2953 -1247 4247
57 CHICHERY Séverine 26114 D35 8106MP 2:09:13 2912 2870 -42 3009
58 JOLLY Bénédicte 28943 D35 8607PC 2:10:45 3619 2836 -783 3619
59 PEAN Anne Sophie 16744 D21 3408LR 2:15:30 3293 2737 -556 3293
60 MIRANDE Anais 31178 D21 6408AQ 2:18:21 2053 2681 +628 2878
61 MARCON Oriane 29364 D21 8607PC 2:23:55 3920 2577 -1343 3864
62 BARRIN Emilie 23403 D21 8607PC 2:37:24 2459 2356 -103 2573
63 ROMINGER Claire 30449 D20 6701AL 2:56:06 2052 2106 +54 2775
HAGARD Virginie 7048 D21 5907NO abandon 3542 0 3602
LEFEVRE Lou 30950 D20 5907NO abandon 2447 0 2670
DOMBROVSKY Florence 25178 D35 4705AQ pm 3184 0 3143
LE GORJU GOIN Cindy 28785 D21 9502IF pm 2588 0 2437